sensor_id;sensor_type;location;lat;lon;timestamp;pressure;altitude;pressure_sealevel;temperature;humidity
32933;BME280;19444;50.518;10.870;2023-03-17T00:00:23;96488.00;;;1.64;100.00
32933;BME280;19444;50.518;10.870;2023-03-17T00:03:25;96492.25;;;1.65;100.00
32933;BME280;19444;50.518;10.870;2023-03-17T00:06:28;96489.81;;;1.32;100.00
32933;BME280;19444;50.518;10.870;2023-03-17T00:09:26;96482.41;;;1.07;100.00
32933;BME280;19444;50.518;10.870;2023-03-17T00:12:23;96476.84;;;1.03;100.00
32933;BME280;19444;50.518;10.870;2023-03-17T00:15:22;96477.78;;;0.92;100.00
32933;BME280;19444;50.518;10.870;2023-03-17T00:18:19;96478.38;;;1.26;100.00
32933;BME280;19444;50.518;10.870;2023-03-17T00:21:24;96474.41;;;1.24;100.00
32933;BME280;19444;50.518;10.870;2023-03-17T00:24:21;96475.50;;;1.01;100.00
32933;BME280;19444;50.518;10.870;2023-03-17T00:27:18;96480.22;;;0.77;100.00
32933;BME280;19444;50.518;10.870;2023-03-17T00:30:15;96473.91;;;0.78;100.00
32933;BME280;19444;50.518;10.870;2023-03-17T00:33:15;96475.19;;;0.75;100.00
32933;BME280;19444;50.518;10.870;2023-03-17T00:36:25;96472.00;;;0.73;100.00
32933;BME280;19444;50.518;10.870;2023-03-17T00:39:23;96479.34;;;0.71;100.00
32933;BME280;19444;50.518;10.870;2023-03-17T00:42:21;96458.44;;;0.87;100.00
32933;BME280;19444;50.518;10.870;2023-03-17T00:45:21;96469.84;;;0.70;100.00
32933;BME280;19444;50.518;10.870;2023-03-17T00:48:20;96456.63;;;0.65;100.00
32933;BME280;19444;50.518;10.870;2023-03-17T00:51:17;96457.34;;;0.61;100.00
32933;BME280;19444;50.518;10.870;2023-03-17T00:54:16;96454.88;;;0.54;100.00
32933;BME280;19444;50.518;10.870;2023-03-17T00:57:13;96449.13;;;0.57;100.00
32933;BME280;19444;50.518;10.870;2023-03-17T01:00:25;96437.72;;;1.00;100.00
32933;BME280;19444;50.518;10.870;2023-03-17T01:03:23;96438.56;;;0.79;100.00
32933;BME280;19444;50.518;10.870;2023-03-17T01:06:20;96435.03;;;0.46;100.00
32933;BME280;19444;50.518;10.870;2023-03-17T01:09:19;96435.88;;;0.30;100.00
32933;BME280;19444;50.518;10.870;2023-03-17T01:12:19;96448.63;;;0.38;100.00
32933;BME280;19444;50.518;10.870;2023-03-17T01:15:17;96432.09;;;0.26;100.00
32933;BME280;19444;50.518;10.870;2023-03-17T01:18:19;96436.00;;;0.40;100.00
32933;BME280;19444;50.518;10.870;2023-03-17T01:21:17;96425.06;;;0.53;100.00
32933;BME280;19444;50.518;10.870;2023-03-17T01:24:13;96414.63;;;0.85;100.00
32933;BME280;19444;50.518;10.870;2023-03-17T01:27:11;96414.63;;;0.85;100.00
32933;BME280;19444;50.518;10.870;2023-03-17T01:33:15;96422.94;;;0.50;100.00
32933;BME280;19444;50.518;10.870;2023-03-17T01:36:12;96408.34;;;0.65;100.00
32933;BME280;19444;50.518;10.870;2023-03-17T01:39:09;96412.00;;;0.85;100.00
32933;BME280;19444;50.518;10.870;2023-03-17T01:42:06;96402.19;;;0.81;100.00
32933;BME280;19444;50.518;10.870;2023-03-17T01:45:07;96398.38;;;0.72;100.00
32933;BME280;19444;50.518;10.870;2023-03-17T01:48:04;96389.44;;;0.73;100.00
32933;BME280;19444;50.518;10.870;2023-03-17T01:51:01;96382.41;;;0.56;100.00
32933;BME280;19444;50.518;10.870;2023-03-17T01:54:04;96382.81;;;0.70;100.00
32933;BME280;19444;50.518;10.870;2023-03-17T01:57:31;96386.50;;;0.69;100.00
32933;BME280;19444;50.518;10.870;2023-03-17T02:00:28;96378.59;;;0.69;100.00
32933;BME280;19444;50.518;10.870;2023-03-17T02:03:27;96373.72;;;0.56;100.00
32933;BME280;19444;50.518;10.870;2023-03-17T02:06:25;96361.91;;;1.18;100.00
32933;BME280;19444;50.518;10.870;2023-03-17T02:09:22;96368.75;;;0.87;100.00
32933;BME280;19444;50.518;10.870;2023-03-17T02:12:21;96358.94;;;0.82;100.00
32933;BME280;19444;50.518;10.870;2023-03-17T02:15:20;96359.41;;;1.33;100.00
32933;BME280;19444;50.518;10.870;2023-03-17T02:18:20;96364.72;;;0.79;100.00
32933;BME280;19444;50.518;10.870;2023-03-17T02:21:43;96379.88;;;0.45;100.00
32933;BME280;19444;50.518;10.870;2023-03-17T02:25:03;96377.31;;;0.50;100.00
32933;BME280;19444;50.518;10.870;2023-03-17T02:28:08;96373.75;;;0.61;100.00
32933;BME280;19444;50.518;10.870;2023-03-17T02:31:05;96358.06;;;1.30;100.00
32933;BME280;19444;50.518;10.870;2023-03-17T02:34:04;96352.88;;;1.40;100.00
32933;BME280;19444;50.518;10.870;2023-03-17T02:37:01;96351.72;;;0.72;100.00
32933;BME280;19444;50.518;10.870;2023-03-17T02:39:58;96362.66;;;0.59;100.00
32933;BME280;19444;50.518;10.870;2023-03-17T02:42:57;96370.34;;;0.39;100.00
32933;BME280;19444;50.518;10.870;2023-03-17T02:45:55;96377.75;;;0.42;100.00
32933;BME280;19444;50.518;10.870;2023-03-17T02:48:51;96382.72;;;0.38;100.00
32933;BME280;19444;50.518;10.870;2023-03-17T02:51:50;96378.41;;;0.54;100.00
32933;BME280;19444;50.518;10.870;2023-03-17T02:54:47;96374.19;;;0.75;100.00
32933;BME280;19444;50.518;10.870;2023-03-17T02:57:44;96368.16;;;1.06;100.00
32933;BME280;19444;50.518;10.870;2023-03-17T03:00:41;96361.22;;;1.00;100.00
32933;BME280;19444;50.518;10.870;2023-03-17T03:03:38;96355.19;;;1.05;100.00
32933;BME280;19444;50.518;10.870;2023-03-17T03:06:35;96377.50;;;0.65;100.00
32933;BME280;19444;50.518;10.870;2023-03-17T03:09:33;96373.34;;;0.47;100.00
32933;BME280;19444;50.518;10.870;2023-03-17T03:12:30;96357.38;;;0.59;100.00
32933;BME280;19444;50.518;10.870;2023-03-17T03:15:26;96351.13;;;0.43;100.00
32933;BME280;19444;50.518;10.870;2023-03-17T03:18:24;96351.28;;;0.32;100.00
32933;BME280;19444;50.518;10.870;2023-03-17T03:21:21;96359.44;;;0.30;100.00
32933;BME280;19444;50.518;10.870;2023-03-17T03:24:18;96359.69;;;0.28;100.00
32933;BME280;19444;50.518;10.870;2023-03-17T03:27:15;96346.25;;;0.30;100.00
32933;BME280;19444;50.518;10.870;2023-03-17T03:30:12;96355.81;;;0.14;100.00
32933;BME280;19444;50.518;10.870;2023-03-17T03:33:12;96347.22;;;0.24;100.00
32933;BME280;19444;50.518;10.870;2023-03-17T03:36:09;96349.81;;;0.19;100.00
32933;BME280;19444;50.518;10.870;2023-03-17T03:39:07;96346.44;;;0.23;100.00
32933;BME280;19444;50.518;10.870;2023-03-17T03:42:05;96348.22;;;0.40;100.00
32933;BME280;19444;50.518;10.870;2023-03-17T03:45:03;96337.47;;;0.24;100.00
32933;BME280;19444;50.518;10.870;2023-03-17T03:48:00;96350.09;;;0.22;100.00
32933;BME280;19444;50.518;10.870;2023-03-17T03:50:59;96348.69;;;0.15;100.00
32933;BME280;19444;50.518;10.870;2023-03-17T03:53:56;96342.50;;;0.26;100.00
32933;BME280;19444;50.518;10.870;2023-03-17T03:56:53;96339.28;;;0.19;100.00
32933;BME280;19444;50.518;10.870;2023-03-17T03:59:50;96338.47;;;0.18;100.00
32933;BME280;19444;50.518;10.870;2023-03-17T04:02:47;96338.41;;;-0.09;100.00
32933;BME280;19444;50.518;10.870;2023-03-17T04:05:44;96334.00;;;-0.20;100.00
32933;BME280;19444;50.518;10.870;2023-03-17T04:08:41;96332.75;;;-0.17;100.00
32933;BME280;19444;50.518;10.870;2023-03-17T04:11:37;96317.75;;;-0.17;100.00
32933;BME280;19444;50.518;10.870;2023-03-17T04:14:34;96324.78;;;-0.22;100.00
32933;BME280;19444;50.518;10.870;2023-03-17T04:17:32;96328.16;;;-0.27;100.00
32933;BME280;19444;50.518;10.870;2023-03-17T04:20:29;96321.09;;;-0.21;100.00
32933;BME280;19444;50.518;10.870;2023-03-17T04:23:26;96312.75;;;-0.35;100.00
32933;BME280;19444;50.518;10.870;2023-03-17T04:26:24;96312.16;;;-0.20;100.00
32933;BME280;19444;50.518;10.870;2023-03-17T04:29:21;96320.25;;;-0.27;100.00
32933;BME280;19444;50.518;10.870;2023-03-17T04:32:18;96327.38;;;-0.44;100.00
32933;BME280;19444;50.518;10.870;2023-03-17T04:35:18;96337.66;;;-0.43;100.00
32933;BME280;19444;50.518;10.870;2023-03-17T04:38:17;96334.88;;;-0.36;100.00
32933;BME280;19444;50.518;10.870;2023-03-17T04:41:14;96336.63;;;-0.59;100.00
32933;BME280;19444;50.518;10.870;2023-03-17T04:44:11;96344.47;;;-0.64;100.00
32933;BME280;19444;50.518;10.870;2023-03-17T04:47:08;96346.19;;;-0.36;100.00
32933;BME280;19444;50.518;10.870;2023-03-17T04:50:08;96348.34;;;-0.49;100.00
32933;BME280;19444;50.518;10.870;2023-03-17T04:53:05;96359.06;;;-0.73;100.00
32933;BME280;19444;50.518;10.870;2023-03-17T04:56:02;96348.44;;;-0.61;100.00
32933;BME280;19444;50.518;10.870;2023-03-17T04:58:59;96336.47;;;-0.86;100.00
32933;BME280;19444;50.518;10.870;2023-03-17T05:01:56;96347.16;;;-0.75;100.00
32933;BME280;19444;50.518;10.870;2023-03-17T05:04:53;96336.88;;;-0.94;100.00
32933;BME280;19444;50.518;10.870;2023-03-17T05:07:50;96324.06;;;-0.90;100.00
32933;BME280;19444;50.518;10.870;2023-03-17T05:10:46;96328.91;;;-0.99;100.00
32933;BME280;19444;50.518;10.870;2023-03-17T05:13:44;96330.91;;;-0.89;100.00
32933;BME280;19444;50.518;10.870;2023-03-17T05:16:41;96317.50;;;-0.88;100.00
32933;BME280;19444;50.518;10.870;2023-03-17T05:19:38;96310.41;;;-0.87;100.00
32933;BME280;19444;50.518;10.870;2023-03-17T05:22:35;96298.47;;;-0.78;100.00
32933;BME280;19444;50.518;10.870;2023-03-17T05:25:32;96292.53;;;-0.68;100.00
32933;BME280;19444;50.518;10.870;2023-03-17T05:28:29;96293.63;;;-0.64;100.00
32933;BME280;19444;50.518;10.870;2023-03-17T05:31:26;96289.53;;;-0.77;100.00
32933;BME280;19444;50.518;10.870;2023-03-17T05:34:23;96280.69;;;-0.71;100.00
32933;BME280;19444;50.518;10.870;2023-03-17T05:37:21;96280.47;;;-0.64;100.00
32933;BME280;19444;50.518;10.870;2023-03-17T05:40:18;96271.75;;;-0.70;100.00
32933;BME280;19444;50.518;10.870;2023-03-17T05:43:16;96261.47;;;-0.71;100.00
32933;BME280;19444;50.518;10.870;2023-03-17T05:46:14;96264.41;;;-0.68;100.00
32933;BME280;19444;50.518;10.870;2023-03-17T05:49:11;96273.56;;;-0.70;100.00
32933;BME280;19444;50.518;10.870;2023-03-17T05:52:08;96269.34;;;-0.71;100.00
32933;BME280;19444;50.518;10.870;2023-03-17T05:55:06;96273.41;;;-0.64;100.00
32933;BME280;19444;50.518;10.870;2023-03-17T05:58:03;96295.19;;;-0.85;100.00
32933;BME280;19444;50.518;10.870;2023-03-17T06:01:02;96300.75;;;-0.65;100.00
32933;BME280;19444;50.518;10.870;2023-03-17T06:03:59;96308.09;;;-0.83;100.00
32933;BME280;19444;50.518;10.870;2023-03-17T06:06:57;96291.66;;;-0.57;100.00
32933;BME280;19444;50.518;10.870;2023-03-17T06:09:54;96304.59;;;-0.72;100.00
32933;BME280;19444;50.518;10.870;2023-03-17T06:12:52;96301.63;;;-0.76;100.00
32933;BME280;19444;50.518;10.870;2023-03-17T06:15:49;96299.13;;;-0.49;100.00
32933;BME280;19444;50.518;10.870;2023-03-17T06:18:47;96298.19;;;-0.43;100.00
32933;BME280;19444;50.518;10.870;2023-03-17T06:21:45;96300.34;;;-0.73;100.00
32933;BME280;19444;50.518;10.870;2023-03-17T06:24:42;96286.88;;;-0.60;100.00
32933;BME280;19444;50.518;10.870;2023-03-17T06:27:39;96270.78;;;-0.64;100.00
32933;BME280;19444;50.518;10.870;2023-03-17T06:30:36;96275.00;;;-0.63;100.00
32933;BME280;19444;50.518;10.870;2023-03-17T06:33:36;96278.69;;;-0.64;100.00
32933;BME280;19444;50.518;10.870;2023-03-17T06:36:33;96276.97;;;-0.53;100.00
32933;BME280;19444;50.518;10.870;2023-03-17T06:39:33;96283.00;;;-0.36;100.00
32933;BME280;19444;50.518;10.870;2023-03-17T06:42:30;96283.44;;;-0.22;100.00
32933;BME280;19444;50.518;10.870;2023-03-17T06:45:28;96297.25;;;-0.32;100.00
32933;BME280;19444;50.518;10.870;2023-03-17T06:48:26;96307.50;;;-0.35;100.00
32933;BME280;19444;50.518;10.870;2023-03-17T06:51:24;96312.56;;;-0.29;100.00
32933;BME280;19444;50.518;10.870;2023-03-17T06:54:21;96317.41;;;-0.20;100.00
32933;BME280;19444;50.518;10.870;2023-03-17T06:57:21;96316.88;;;-0.01;100.00
32933;BME280;19444;50.518;10.870;2023-03-17T07:00:19;96315.00;;;-0.05;100.00
32933;BME280;19444;50.518;10.870;2023-03-17T07:03:16;96304.69;;;0.15;100.00
32933;BME280;19444;50.518;10.870;2023-03-17T07:06:13;96310.03;;;0.20;100.00
32933;BME280;19444;50.518;10.870;2023-03-17T07:09:10;96298.63;;;0.37;100.00
32933;BME280;19444;50.518;10.870;2023-03-17T07:12:07;96290.41;;;0.60;100.00
32933;BME280;19444;50.518;10.870;2023-03-17T07:15:06;96297.00;;;0.57;100.00
32933;BME280;19444;50.518;10.870;2023-03-17T07:18:04;96295.63;;;0.82;100.00
32933;BME280;19444;50.518;10.870;2023-03-17T07:21:02;96292.38;;;1.02;100.00
32933;BME280;19444;50.518;10.870;2023-03-17T07:23:59;96299.72;;;1.00;100.00
32933;BME280;19444;50.518;10.870;2023-03-17T07:26:56;96300.72;;;1.26;100.00
32933;BME280;19444;50.518;10.870;2023-03-17T07:29:53;96301.84;;;1.35;100.00
32933;BME280;19444;50.518;10.870;2023-03-17T07:32:49;96308.03;;;1.51;100.00
32933;BME280;19444;50.518;10.870;2023-03-17T07:35:47;96303.28;;;1.95;100.00
32933;BME280;19444;50.518;10.870;2023-03-17T07:38:45;96303.47;;;2.56;100.00
32933;BME280;19444;50.518;10.870;2023-03-17T07:41:42;96299.00;;;2.56;100.00
32933;BME280;19444;50.518;10.870;2023-03-17T07:44:40;96282.94;;;3.24;100.00
32933;BME280;19444;50.518;10.870;2023-03-17T07:47:37;96282.06;;;3.64;100.00
32933;BME280;19444;50.518;10.870;2023-03-17T07:50:35;96275.50;;;3.41;100.00
32933;BME280;19444;50.518;10.870;2023-03-17T07:53:32;96274.88;;;3.80;100.00
32933;BME280;19444;50.518;10.870;2023-03-17T07:56:31;96276.06;;;4.18;100.00
32933;BME280;19444;50.518;10.870;2023-03-17T07:59:28;96256.06;;;3.87;100.00
32933;BME280;19444;50.518;10.870;2023-03-17T08:02:25;96262.25;;;5.97;99.15
32933;BME280;19444;50.518;10.870;2023-03-17T08:05:22;96232.50;;;11.37;61.58
32933;BME280;19444;50.518;10.870;2023-03-17T08:08:20;96243.19;;;9.54;54.86
32933;BME280;19444;50.518;10.870;2023-03-17T08:11:18;96243.16;;;9.00;57.94
32933;BME280;19444;50.518;10.870;2023-03-17T08:14:16;96242.97;;;10.21;52.55
32933;BME280;19444;50.518;10.870;2023-03-17T08:17:13;96227.94;;;11.37;49.97
32933;BME280;19444;50.518;10.870;2023-03-17T08:20:11;96228.47;;;9.74;55.66
32933;BME280;19444;50.518;10.870;2023-03-17T08:23:08;96228.53;;;10.31;53.83
32933;BME280;19444;50.518;10.870;2023-03-17T08:26:05;96222.47;;;9.68;59.15
32933;BME280;19444;50.518;10.870;2023-03-17T08:29:02;96213.97;;;9.35;57.11
32933;BME280;19444;50.518;10.870;2023-03-17T08:32:01;96213.06;;;9.71;55.94
32933;BME280;19444;50.518;10.870;2023-03-17T08:34:58;96212.88;;;10.07;62.46
32933;BME280;19444;50.518;10.870;2023-03-17T08:37:55;96210.38;;;7.67;79.36
32933;BME280;19444;50.518;10.870;2023-03-17T08:40:52;96217.53;;;7.72;86.12
32933;BME280;19444;50.518;10.870;2023-03-17T08:43:50;96216.13;;;7.75;70.75
32933;BME280;19444;50.518;10.870;2023-03-17T08:46:47;96217.22;;;8.42;70.13
32933;BME280;19444;50.518;10.870;2023-03-17T08:49:48;96216.88;;;8.30;62.65
32933;BME280;19444;50.518;10.870;2023-03-17T08:52:46;96205.91;;;8.81;66.01
32933;BME280;19444;50.518;10.870;2023-03-17T08:55:44;96202.69;;;8.71;72.68
32933;BME280;19444;50.518;10.870;2023-03-17T08:58:42;96198.03;;;8.13;71.00
32933;BME280;19444;50.518;10.870;2023-03-17T09:01:40;96206.63;;;8.10;70.62
32933;BME280;19444;50.518;10.870;2023-03-17T09:04:39;96199.09;;;8.75;66.35
32933;BME280;19444;50.518;10.870;2023-03-17T09:07:36;96209.69;;;8.44;85.04
32933;BME280;19444;50.518;10.870;2023-03-17T09:10:34;96216.47;;;9.62;74.86
32933;BME280;19444;50.518;10.870;2023-03-17T09:13:33;96212.84;;;10.90;58.90
32933;BME280;19444;50.518;10.870;2023-03-17T09:16:31;96195.94;;;12.17;52.57
32933;BME280;19444;50.518;10.870;2023-03-17T09:19:30;96203.00;;;11.92;53.69
32933;BME280;19444;50.518;10.870;2023-03-17T09:22:28;96195.38;;;13.61;49.88
32933;BME280;19444;50.518;10.870;2023-03-17T09:25:25;96203.66;;;13.44;45.67
32933;BME280;19444;50.518;10.870;2023-03-17T09:28:22;96186.78;;;17.83;39.48
32933;BME280;19444;50.518;10.870;2023-03-17T09:31:20;96191.47;;;16.67;41.14
32933;BME280;19444;50.518;10.870;2023-03-17T09:34:17;96194.97;;;13.96;40.12
32933;BME280;19444;50.518;10.870;2023-03-17T09:37:14;96189.13;;;15.67;46.02
32933;BME280;19444;50.518;10.870;2023-03-17T09:40:17;96186.09;;;16.86;42.61
32933;BME280;19444;50.518;10.870;2023-03-17T09:43:44;96190.81;;;15.16;47.25
32933;BME280;19444;50.518;10.870;2023-03-17T09:50:24;96185.63;;;14.30;46.47
32933;BME280;19444;50.518;10.870;2023-03-17T09:53:28;96183.94;;;14.26;44.65
32933;BME280;19444;50.518;10.870;2023-03-17T09:56:32;96189.53;;;13.47;52.18
32933;BME280;19444;50.518;10.870;2023-03-17T09:59:37;96175.19;;;14.93;43.08
32933;BME280;19444;50.518;10.870;2023-03-17T10:02:36;96174.22;;;14.09;43.02
32933;BME280;19444;50.518;10.870;2023-03-17T10:05:35;96180.69;;;14.32;47.53
32933;BME280;19444;50.518;10.870;2023-03-17T10:08:34;96172.13;;;14.95;41.39
32933;BME280;19444;50.518;10.870;2023-03-17T10:11:41;96179.25;;;13.28;47.27
32933;BME280;19444;50.518;10.870;2023-03-17T10:14:57;96173.38;;;13.47;47.11
32933;BME280;19444;50.518;10.870;2023-03-17T10:17:57;96170.13;;;14.51;43.45
32933;BME280;19444;50.518;10.870;2023-03-17T10:21:01;96159.59;;;15.30;50.66
32933;BME280;19444;50.518;10.870;2023-03-17T10:24:01;96144.94;;;16.61;51.97
32933;BME280;19444;50.518;10.870;2023-03-17T10:27:02;96145.72;;;16.77;43.44
32933;BME280;19444;50.518;10.870;2023-03-17T10:30:03;96156.34;;;15.69;53.29
32933;BME280;19444;50.518;10.870;2023-03-17T10:33:04;96154.13;;;14.71;55.22
32933;BME280;19444;50.518;10.870;2023-03-17T10:36:13;96146.94;;;13.74;46.49
32933;BME280;19444;50.518;10.870;2023-03-17T10:39:18;96135.22;;;16.21;43.26
32933;BME280;19444;50.518;10.870;2023-03-17T10:42:25;96137.50;;;14.97;48.86
32933;BME280;19444;50.518;10.870;2023-03-17T10:45:34;96128.13;;;16.33;53.52
32933;BME280;19444;50.518;10.870;2023-03-17T10:48:37;96140.88;;;14.66;52.21
32933;BME280;19444;50.518;10.870;2023-03-17T10:51:36;96146.34;;;15.69;78.18
32933;BME280;19444;50.518;10.870;2023-03-17T10:54:35;96134.19;;;16.10;46.54
32933;BME280;19444;50.518;10.870;2023-03-17T10:57:36;96121.25;;;17.78;42.99
32933;BME280;19444;50.518;10.870;2023-03-17T11:00:36;96107.88;;;18.15;44.57
32933;BME280;19444;50.518;10.870;2023-03-17T11:03:40;96104.22;;;18.60;35.78
32933;BME280;19444;50.518;10.870;2023-03-17T11:06:41;96104.31;;;17.61;71.92
32933;BME280;19444;50.518;10.870;2023-03-17T11:09:39;96095.09;;;17.43;61.48
32933;BME280;19444;50.518;10.870;2023-03-17T11:12:39;96095.88;;;17.67;48.89
32933;BME280;19444;50.518;10.870;2023-03-17T11:15:45;96103.31;;;16.46;40.20
32933;BME280;19444;50.518;10.870;2023-03-17T11:18:44;96103.19;;;16.78;45.77
32933;BME280;19444;50.518;10.870;2023-03-17T11:25:14;96080.94;;;17.08;46.35
32933;BME280;19444;50.518;10.870;2023-03-17T11:28:21;96081.81;;;16.92;100.00
32933;BME280;19444;50.518;10.870;2023-03-17T11:31:32;96081.16;;;16.41;68.30
32933;BME280;19444;50.518;10.870;2023-03-17T11:41:42;96080.28;;;16.17;71.99
32933;BME280;19444;50.518;10.870;2023-03-17T11:45:08;96086.88;;;16.01;49.78
32933;BME280;19444;50.518;10.870;2023-03-17T11:51:47;96079.22;;;15.24;49.18
32933;BME280;19444;50.518;10.870;2023-03-17T11:55:13;96091.91;;;14.92;53.76
32933;BME280;19444;50.518;10.870;2023-03-17T12:01:25;96078.94;;;15.13;71.88
32933;BME280;19444;50.518;10.870;2023-03-17T12:04:28;96084.81;;;14.87;59.40
32933;BME280;19444;50.518;10.870;2023-03-17T12:07:39;96090.38;;;14.38;55.88
32933;BME280;19444;50.518;10.870;2023-03-17T12:10:47;96082.69;;;14.80;48.58
32933;BME280;19444;50.518;10.870;2023-03-17T12:14:05;96082.63;;;15.52;90.95
32933;BME280;19444;50.518;10.870;2023-03-17T12:17:22;96084.88;;;14.35;56.55
32933;BME280;19444;50.518;10.870;2023-03-17T12:24:18;96078.31;;;16.34;86.30
32933;BME280;19444;50.518;10.870;2023-03-17T12:27:42;96090.50;;;14.98;48.02
32933;BME280;19444;50.518;10.870;2023-03-17T12:30:54;96068.69;;;16.17;47.86
32933;BME280;19444;50.518;10.870;2023-03-17T12:34:05;96073.50;;;16.08;42.76
32933;BME280;19444;50.518;10.870;2023-03-17T12:37:06;96062.91;;;17.38;48.88
32933;BME280;19444;50.518;10.870;2023-03-17T12:40:09;96063.91;;;17.76;58.69
32933;BME280;19444;50.518;10.870;2023-03-17T12:46:50;96059.09;;;17.66;40.79
32933;BME280;19444;50.518;10.870;2023-03-17T12:53:40;96051.91;;;18.97;39.12
32933;BME280;19444;50.518;10.870;2023-03-17T12:56:43;96052.50;;;19.17;52.90
32933;BME280;19444;50.518;10.870;2023-03-17T12:59:44;96042.22;;;19.84;45.40
32933;BME280;19444;50.518;10.870;2023-03-17T13:02:48;96054.69;;;18.37;42.57
32933;BME280;19444;50.518;10.870;2023-03-17T13:05:51;96053.00;;;19.74;65.66
32933;BME280;19444;50.518;10.870;2023-03-17T13:08:49;96050.00;;;19.89;91.73
32933;BME280;19444;50.518;10.870;2023-03-17T13:11:48;96036.50;;;20.04;49.93
32933;BME280;19444;50.518;10.870;2023-03-17T13:14:46;96034.19;;;19.54;52.66
32933;BME280;19444;50.518;10.870;2023-03-17T13:17:43;96032.47;;;19.36;63.22
32933;BME280;19444;50.518;10.870;2023-03-17T13:20:50;96019.59;;;17.91;40.88
32933;BME280;19444;50.518;10.870;2023-03-17T13:23:58;96025.06;;;18.21;41.77
32933;BME280;19444;50.518;10.870;2023-03-17T13:33:32;96007.03;;;18.06;56.27
32933;BME280;19444;50.518;10.870;2023-03-17T13:40:30;96004.47;;;15.59;44.25
32933;BME280;19444;50.518;10.870;2023-03-17T13:43:42;96017.22;;;14.52;55.83
32933;BME280;19444;50.518;10.870;2023-03-17T13:46:45;96018.34;;;15.42;48.71
32933;BME280;19444;50.518;10.870;2023-03-17T13:49:47;96003.66;;;16.10;62.67
32933;BME280;19444;50.518;10.870;2023-03-17T13:53:10;95994.09;;;15.77;62.01
32933;BME280;19444;50.518;10.870;2023-03-17T14:02:37;95995.63;;;14.96;72.78
32933;BME280;19444;50.518;10.870;2023-03-17T14:05:36;95988.06;;;15.01;49.93
32933;BME280;19444;50.518;10.870;2023-03-17T14:08:36;95990.28;;;14.40;77.97
32933;BME280;19444;50.518;10.870;2023-03-17T14:11:40;95981.25;;;15.39;55.55
32933;BME280;19444;50.518;10.870;2023-03-17T14:17:52;95974.88;;;15.47;76.68
32933;BME280;19444;50.518;10.870;2023-03-17T14:20:58;95972.63;;;15.33;54.66
32933;BME280;19444;50.518;10.870;2023-03-17T14:24:00;95967.03;;;15.42;47.85
32933;BME280;19444;50.518;10.870;2023-03-17T14:27:06;95961.78;;;15.49;55.96
32933;BME280;19444;50.518;10.870;2023-03-17T14:30:08;95975.53;;;16.53;100.00
32933;BME280;19444;50.518;10.870;2023-03-17T14:33:23;95968.03;;;14.87;69.22
32933;BME280;19444;50.518;10.870;2023-03-17T14:36:22;95966.72;;;15.12;68.50
32933;BME280;19444;50.518;10.870;2023-03-17T14:39:24;95964.44;;;15.81;98.65
32933;BME280;19444;50.518;10.870;2023-03-17T14:42:30;95959.09;;;15.65;100.00
32933;BME280;19444;50.518;10.870;2023-03-17T14:45:58;95957.09;;;15.62;49.41
32933;BME280;19444;50.518;10.870;2023-03-17T14:49:19;95951.41;;;14.85;79.11
32933;BME280;19444;50.518;10.870;2023-03-17T14:52:25;95960.78;;;14.31;57.28
32933;BME280;19444;50.518;10.870;2023-03-17T14:55:40;95952.28;;;14.89;89.26
32933;BME280;19444;50.518;10.870;2023-03-17T14:58:43;95949.41;;;14.66;62.72
32933;BME280;19444;50.518;10.870;2023-03-17T15:01:45;95955.13;;;14.48;67.56
32933;BME280;19444;50.518;10.870;2023-03-17T15:05:02;95950.63;;;14.40;89.32
32933;BME280;19444;50.518;10.870;2023-03-17T15:07:59;95949.44;;;14.10;79.83
32933;BME280;19444;50.518;10.870;2023-03-17T15:10:58;95945.59;;;14.39;94.63
32933;BME280;19444;50.518;10.870;2023-03-17T15:14:13;95949.59;;;14.17;63.92
32933;BME280;19444;50.518;10.870;2023-03-17T15:17:26;95942.97;;;14.27;72.42
32933;BME280;19444;50.518;10.870;2023-03-17T15:20:24;95940.47;;;14.06;99.21
32933;BME280;19444;50.518;10.870;2023-03-17T15:23:28;95936.25;;;13.92;100.00
32933;BME280;19444;50.518;10.870;2023-03-17T15:26:29;95941.25;;;13.26;91.06
32933;BME280;19444;50.518;10.870;2023-03-17T15:29:29;95945.00;;;12.88;93.06
32933;BME280;19444;50.518;10.870;2023-03-17T15:32:26;95944.66;;;12.65;100.00
32933;BME280;19444;50.518;10.870;2023-03-17T15:35:24;95937.72;;;12.64;100.00
32933;BME280;19444;50.518;10.870;2023-03-17T15:38:23;95946.28;;;12.45;100.00
32933;BME280;19444;50.518;10.870;2023-03-17T15:41:21;95941.16;;;12.07;100.00
32933;BME280;19444;50.518;10.870;2023-03-17T15:44:17;95950.13;;;12.69;100.00
32933;BME280;19444;50.518;10.870;2023-03-17T15:47:17;95942.78;;;12.33;100.00
32933;BME280;19444;50.518;10.870;2023-03-17T15:50:27;95933.41;;;12.51;100.00
32933;BME280;19444;50.518;10.870;2023-03-17T15:53:26;95928.78;;;12.27;83.21
32933;BME280;19444;50.518;10.870;2023-03-17T15:56:23;95932.09;;;12.12;100.00
32933;BME280;19444;50.518;10.870;2023-03-17T15:59:19;95933.28;;;11.39;100.00
32933;BME280;19444;50.518;10.870;2023-03-17T16:02:43;95925.13;;;11.99;100.00
32933;BME280;19444;50.518;10.870;2023-03-17T16:05:41;95925.41;;;11.97;100.00
32933;BME280;19444;50.518;10.870;2023-03-17T16:08:39;95927.13;;;11.60;100.00
32933;BME280;19444;50.518;10.870;2023-03-17T16:11:35;95933.28;;;11.39;100.00
32933;BME280;19444;50.518;10.870;2023-03-17T16:14:35;95925.38;;;11.14;100.00
32933;BME280;19444;50.518;10.870;2023-03-17T16:17:32;95920.03;;;11.14;100.00
32933;BME280;19444;50.518;10.870;2023-03-17T16:20:35;95931.91;;;10.74;100.00
32933;BME280;19444;50.518;10.870;2023-03-17T16:23:33;95927.59;;;10.44;100.00
32933;BME280;19444;50.518;10.870;2023-03-17T16:26:33;95935.25;;;11.01;100.00
32933;BME280;19444;50.518;10.870;2023-03-17T16:29:30;95922.97;;;11.21;100.00
32933;BME280;19444;50.518;10.870;2023-03-17T16:32:26;95924.16;;;11.11;100.00
32933;BME280;19444;50.518;10.870;2023-03-17T16:35:24;95921.69;;;10.59;100.00